Dew Point Data


Current

Temp 43.0 F. Dew Point 39.9 F.


Dew Point Comfort Scale

dewpoints

Date, Time Temperature Dew Point
Sat Nov 16 00:08:04 2019 26.0 F. 23.0 F.
Sat Nov 16 01:08:05 2019 24.0 F. 21.9 F.
Sat Nov 16 02:08:05 2019 25.0 F. 21.9 F.
Sat Nov 16 03:08:05 2019 24.0 F. 21.0 F.
Sat Nov 16 04:08:05 2019 24.0 F. 21.0 F.
Sat Nov 16 05:08:05 2019 23.0 F. 19.9 F.
Sat Nov 16 06:08:04 2019 24.0 F. 21.0 F.
Sat Nov 16 07:08:05 2019 23.0 F. 21.0 F.
Sat Nov 16 08:08:05 2019 29.0 F. 26.1 F.
Sat Nov 16 09:08:05 2019 36.0 F. 28.9 F.
Sat Nov 16 10:08:04 2019 39.0 F. 30.0 F.
Sat Nov 16 11:09:00 2019
Sat Nov 16 12:09:00 2019
Sat Nov 16 13:09:00 2019
Sat Nov 16 14:09:00 2019
Sat Nov 16 15:08:59 2019
Sat Nov 16 16:09:00 2019
Sat Nov 16 17:09:00 2019
Sat Nov 16 18:08:05 2019 38.0 F. 30.0 F.
Sat Nov 16 19:08:05 2019 37.0 F. 30.0 F.
Sat Nov 16 20:08:04 2019 36.0 F. 30.0 F.
Sat Nov 16 21:08:05 2019 34.0 F. 28.9 F.
Sat Nov 16 22:08:04 2019 33.0 F. 28.9 F.
Sat Nov 16 23:08:05 2019 30.0 F. 28.0 F.
Sun Nov 17 00:08:05 2019 28.0 F. 26.1 F.
Sun Nov 17 01:08:05 2019 27.0 F. 25.0 F.
Sun Nov 17 02:08:05 2019 26.0 F. 24.1 F.
Sun Nov 17 03:08:05 2019 24.0 F. 21.9 F.
Sun Nov 17 04:08:05 2019 25.0 F. 21.9 F.
Sun Nov 17 05:08:05 2019 25.0 F. 23.0 F.
Sun Nov 17 06:08:05 2019 25.0 F. 23.0 F.
Sun Nov 17 07:08:05 2019 24.0 F. 21.9 F.
Sun Nov 17 08:08:05 2019 29.0 F. 27.0 F.
Sun Nov 17 09:08:04 2019 34.0 F. 32.0 F.
Sun Nov 17 10:08:04 2019 37.0 F. 33.1 F.
Sun Nov 17 11:08:04 2019 42.0 F. 34.0 F.
Sun Nov 17 12:08:05 2019 46.0 F. 35.1 F.
Sun Nov 17 13:08:05 2019 50.0 F. 33.1 F.
Sun Nov 17 14:08:04 2019 50.0 F. 33.1 F.
Sun Nov 17 15:08:05 2019 49.0 F. 33.1 F.
Sun Nov 17 16:08:06 2019 47.0 F. 34.0 F.
Sun Nov 17 17:08:05 2019 45.0 F. 34.0 F.
Sun Nov 17 18:08:04 2019 45.0 F. 35.1 F.
Sun Nov 17 19:08:05 2019 44.0 F. 35.1 F.
Sun Nov 17 20:08:05 2019 42.0 F. 35.1 F.
Sun Nov 17 21:08:05 2019 39.0 F. 34.0 F.
Sun Nov 17 22:08:05 2019 39.0 F. 34.0 F.
Sun Nov 17 23:08:05 2019 44.0 F. 36.0 F.
Mon Nov 18 00:08:05 2019 41.0 F. 35.1 F.
Mon Nov 18 01:08:05 2019 38.0 F. 34.0 F.
Mon Nov 18 02:08:05 2019 34.0 F. 32.0 F.
Mon Nov 18 03:08:05 2019 39.0 F. 36.0 F.
Mon Nov 18 04:08:05 2019 43.0 F. 37.9 F.
Mon Nov 18 05:08:05 2019 43.0 F. 37.0 F.
Mon Nov 18 06:08:04 2019 43.0 F. 37.0 F.
Mon Nov 18 07:08:04 2019 41.0 F. 37.0 F.
Mon Nov 18 08:08:04 2019 43.0 F. 37.9 F.
Mon Nov 18 09:08:04 2019 46.0 F. 37.9 F.
Mon Nov 18 10:08:05 2019 50.0 F. 37.9 F.
Mon Nov 18 11:08:05 2019 51.0 F. 37.0 F.
Mon Nov 18 12:08:05 2019 51.0 F. 37.0 F.
Mon Nov 18 13:08:19 2019 54.0 F. 36.0 F.
Mon Nov 18 14:08:04 2019 52.0 F. 36.0 F.
Mon Nov 18 15:08:05 2019 52.0 F. 36.0 F.
Mon Nov 18 16:08:04 2019 51.0 F. 35.1 F.
Mon Nov 18 17:08:04 2019 46.0 F. 35.1 F.
Mon Nov 18 18:08:04 2019 46.0 F. 35.1 F.
Mon Nov 18 19:08:04 2019 47.0 F. 36.0 F.
Mon Nov 18 20:08:04 2019 47.0 F. 37.0 F.
Mon Nov 18 21:08:05 2019 49.0 F. 37.9 F.
Mon Nov 18 22:08:05 2019 47.0 F. 39.9 F.
Mon Nov 18 23:08:05 2019 47.0 F. 39.9 F.
Tue Nov 19 00:08:05 2019 46.0 F. 41.0 F.
Tue Nov 19 01:08:04 2019 46.0 F. 41.0 F.
Tue Nov 19 02:08:05 2019 45.0 F. 42.1 F.
Tue Nov 19 03:08:05 2019 44.0 F. 43.0 F.
Tue Nov 19 04:08:04 2019 44.0 F. 42.1 F.
Tue Nov 19 05:08:05 2019 44.0 F. 42.1 F.
Tue Nov 19 06:08:05 2019 43.0 F. 42.1 F.
Tue Nov 19 07:08:06 2019 41.0 F. 39.0 F.
Tue Nov 19 08:08:04 2019 45.0 F. 43.0 F.
Tue Nov 19 09:09:00 2019
Tue Nov 19 10:08:05 2019 51.0 F. 43.0 F.
Tue Nov 19 11:08:05 2019 50.0 F. 42.1 F.
Tue Nov 19 12:08:05 2019 52.0 F. 41.0 F.
Tue Nov 19 13:08:05 2019 52.0 F. 41.0 F.
Tue Nov 19 14:08:04 2019 56.0 F. 37.9 F.
Tue Nov 19 15:08:05 2019 56.0 F. 37.9 F.
Tue Nov 19 16:08:04 2019 56.0 F. 37.0 F.
Tue Nov 19 17:08:04 2019 56.0 F. 37.0 F.
Tue Nov 19 18:08:04 2019 46.0 F. 37.0 F.
Tue Nov 19 19:08:04 2019 44.0 F. 36.0 F.
Tue Nov 19 20:08:05 2019 40.0 F. 35.1 F.
Tue Nov 19 21:08:05 2019 38.0 F. 34.0 F.
Tue Nov 19 22:08:05 2019 33.0 F. 32.0 F.
Tue Nov 19 23:08:05 2019 33.0 F. 32.0 F.
Wed Nov 20 00:08:04 2019 31.0 F. 30.0 F.
Wed Nov 20 01:08:05 2019 31.0 F. 30.9 F.
Wed Nov 20 02:08:04 2019 31.0 F. 30.9 F.
Wed Nov 20 03:08:05 2019 29.0 F. 28.9 F.
Wed Nov 20 04:08:04 2019 28.0 F. 28.0 F.
Wed Nov 20 05:08:05 2019 28.0 F. 27.0 F.
Wed Nov 20 06:08:05 2019 28.0 F. 27.0 F.
Wed Nov 20 07:08:05 2019 29.0 F. 28.0 F.
Wed Nov 20 08:08:05 2019 34.0 F. 33.1 F.
Wed Nov 20 09:08:05 2019 41.0 F. 37.9 F.
Wed Nov 20 10:08:05 2019 48.0 F. 39.9 F.
Wed Nov 20 11:08:05 2019 48.0 F. 39.9 F.
Wed Nov 20 12:08:04 2019 57.0 F. 39.0 F.
Wed Nov 20 13:08:05 2019 57.0 F. 39.0 F.
Wed Nov 20 14:08:05 2019 60.0 F. 37.9 F.
Wed Nov 20 15:08:05 2019 59.0 F. 37.9 F.
Wed Nov 20 16:08:05 2019 57.0 F. 37.9 F.
Wed Nov 20 17:08:04 2019 55.0 F. 37.9 F.
Wed Nov 20 18:08:05 2019 55.0 F. 37.9 F.
Wed Nov 20 19:08:05 2019 52.0 F. 39.0 F.
Wed Nov 20 20:08:05 2019 51.0 F. 39.0 F.
Wed Nov 20 21:08:05 2019 48.0 F. 37.0 F.
Wed Nov 20 22:08:05 2019 50.0 F. 37.9 F.
Wed Nov 20 23:08:05 2019 53.0 F. 37.9 F.
Thu Nov 21 00:08:05 2019 55.0 F. 36.0 F.
Thu Nov 21 01:08:05 2019 56.0 F. 35.1 F.
Thu Nov 21 02:08:05 2019 54.0 F. 36.0 F.
Thu Nov 21 03:08:05 2019 55.0 F. 36.0 F.
Thu Nov 21 04:08:05 2019 56.0 F. 37.0 F.
Thu Nov 21 05:08:05 2019 56.0 F. 37.0 F.
Thu Nov 21 06:08:04 2019 54.0 F. 43.0 F.
Thu Nov 21 07:08:05 2019 51.0 F. 46.0 F.
Thu Nov 21 08:08:05 2019 50.0 F. 46.9 F.
Thu Nov 21 09:08:05 2019 51.0 F. 48.9 F.
Thu Nov 21 10:08:05 2019 52.0 F. 48.0 F.
Thu Nov 21 11:08:04 2019 53.0 F. 48.9 F.
Thu Nov 21 12:08:05 2019 53.0 F. 48.9 F.
Thu Nov 21 13:08:05 2019 54.0 F. 51.1 F.
Thu Nov 21 14:08:05 2019 54.0 F. 51.1 F.
Thu Nov 21 15:08:04 2019 54.0 F. 51.1 F.
Thu Nov 21 16:08:05 2019 54.0 F. 53.1 F.
Thu Nov 21 17:08:04 2019 54.0 F. 53.1 F.
Thu Nov 21 18:08:04 2019 55.0 F. 54.0 F.
Thu Nov 21 19:08:05 2019 55.0 F. 54.0 F.
Thu Nov 21 20:08:05 2019 54.0 F. 54.0 F.
Thu Nov 21 21:08:05 2019 50.0 F. 50.0 F.
Thu Nov 21 22:08:05 2019 48.0 F. 46.9 F.
Thu Nov 21 23:08:05 2019 48.0 F. 46.9 F.
Fri Nov 22 00:08:04 2019 47.0 F. 45.0 F.
Fri Nov 22 01:08:05 2019 44.0 F. 42.1 F.
Fri Nov 22 02:08:04 2019 43.0 F. 39.9 F.
Fri Nov 22 03:08:05 2019 43.0 F. 39.9 F.